Accueil
METAR-TAF:

METAR-TAF

Aéroports :

Aéroport de Paksé

Paksé, Laos

latitude: 15-08-02N, longitude: 105-46-55E, altitude: 107 m

Observation

Le bulletin a été fait il y a 33 minutes, à 08:00 UTC
Vent 4 kt de sud-est
Température 34°C
Humidité 60%
Pression 1007 hPa
Visibilité 10 km ou plus
Nuages épars à une hauteur de 2000 ft

METAR: VLPS 080800Z 14004KT 9999 SCT020 34/25 Q1007 NOSIG

Heure: 15:33 (08:33 UTC)

Prévision

Le bulletin a été fait il y a 3 heures et 33 minutes, à 05:00 UTC
Prévision valable du 08 à 06 UTC au 09 à 06 UTC
Vent 4 kt de sud-est
Visibilité 10 km ou plus
Nuages épars à une hauteur de 2000 ft
Quelques nuages à une hauteur de 20000 ft

TAF: VLPS 080500Z 0806/0906 14004KT 9999 SCT020 FEW200

Observations et prévisions météorologiques de plus de 4000 aéroports (messages METAR et TAF).

Les stations disponibles sont représentées par des disques jaunes et rouges sur la carte.

Passer la souris dessus pour voir le nom de la station.

Cliquer dessus pour voir les observations et prévisions météorologiques.

Pour changer de carte: cliquez sur les boutons verts avec une croix noire pour zoomer, sur le bouton vert avec un tiret pour effectuer un zoom arrière, ou sur les flèches vertes pour les cartes adjacentes.


METAR-TAF: